Time;durP1;ratioP1;P1;durP2;ratioP2;P2;SDS_P1;SDS_P2;PMS_P1;PMS_P2;Temp;Humidity;BMP_temperature;BMP_pressure;BME280_temperature;BME280_humidity;BME280_pressure;Samples;Min_cycle;Max_cycle;Signal;HPM_P1;HPM_P2
2023/07/19 00:00:14;;;;;;;7.43;2.40;;;;;;;;;;4961393;28;20486;-88
2023/07/19 00:02:40;;;;;;;6.40;2.10;;;;;;;;;;4958676;28;20125;-89
2023/07/19 00:05:08;;;;;;;4.88;2.42;;;;;;;;;;4975010;28;20355;-88
2023/07/19 00:07:34;;;;;;;3.00;1.98;;;;;;;;;;4974963;28;20051;-86
2023/07/19 00:10:00;;;;;;;4.40;2.38;;;;;;;;;;4992882;28;20038;-88
2023/07/19 00:12:26;;;;;;;8.70;1.98;;;;;;;;;;4992729;28;20038;-86
2023/07/19 00:14:53;;;;;;;4.68;2.50;;;;;;;;;;4995066;28;20046;-86
2023/07/19 00:17:19;;;;;;;5.70;2.78;;;;;;;;;;4962457;28;20058;-88
2023/07/19 00:19:45;;;;;;;3.22;2.80;;;;;;;;;;4978421;28;20038;-86
2023/07/19 00:22:11;;;;;;;5.50;2.10;;;;;;;;;;4944774;28;20395;-87
2023/07/19 00:24:37;;;;;;;3.92;1.90;;;;;;;;;;4996325;28;20046;-88
2023/07/19 00:27:03;;;;;;;5.32;2.47;;;;;;;;;;4995755;28;20030;-87
2023/07/19 00:29:29;;;;;;;5.55;2.65;;;;;;;;;;4998198;28;20129;-87
2023/07/19 00:31:55;;;;;;;5.28;2.92;;;;;;;;;;4978235;28;20043;-88
2023/07/19 00:34:21;;;;;;;3.67;2.65;;;;;;;;;;4988044;28;20050;-88
2023/07/19 00:36:47;;;;;;;3.28;2.15;;;;;;;;;;4972806;28;20042;-88
2023/07/19 00:39:13;;;;;;;4.68;1.90;;;;;;;;;;4989705;28;20034;-88
2023/07/19 00:41:40;;;;;;;7.97;2.20;;;;;;;;;;4979921;28;20545;-87
2023/07/19 00:44:06;;;;;;;4.15;1.98;;;;;;;;;;4980348;28;20175;-87
2023/07/19 00:46:33;;;;;;;3.72;2.17;;;;;;;;;;4961890;28;20152;-88
2023/07/19 00:48:59;;;;;;;6.63;3.00;;;;;;;;;;4994460;28;20118;-89
2023/07/19 00:51:25;;;;;;;5.07;2.58;;;;;;;;;;4979277;28;20053;-89
2023/07/19 00:53:53;;;;;;;3.88;2.65;;;;;;;;;;4995088;28;20172;-89
2023/07/19 00:56:20;;;;;;;5.18;2.65;;;;;;;;;;5006977;28;20043;-88
2023/07/19 00:58:48;;;;;;;3.97;1.98;;;;;;;;;;4977402;28;20039;-88
2023/07/19 01:01:14;;;;;;;5.07;2.58;;;;;;;;;;4993896;28;20042;-89
2023/07/19 01:03:41;;;;;;;3.55;2.50;;;;;;;;;;4995360;28;20046;-89
2023/07/19 01:06:07;;;;;;;5.18;2.30;;;;;;;;;;4989295;28;20042;-89
2023/07/19 01:08:33;;;;;;;4.68;2.67;;;;;;;;;;4989097;28;20038;-89
2023/07/19 01:11:00;;;;;;;4.57;3.17;;;;;;;;;;4981084;28;20035;-89
2023/07/19 01:13:27;;;;;;;5.35;2.47;;;;;;;;;;5014577;28;20089;-88
2023/07/19 01:15:53;;;;;;;4.35;2.42;;;;;;;;;;4977265;28;20069;-89
2023/07/19 01:18:19;;;;;;;3.88;2.35;;;;;;;;;;4987553;28;20080;-89
2023/07/19 01:20:46;;;;;;;5.60;2.75;;;;;;;;;;4974253;28;20043;-89
2023/07/19 01:23:12;;;;;;;5.63;2.53;;;;;;;;;;4974697;28;20154;-89
2023/07/19 01:25:38;;;;;;;5.55;2.85;;;;;;;;;;4959152;28;20340;-89
2023/07/19 01:28:04;;;;;;;3.25;2.55;;;;;;;;;;4967978;28;20073;-89
2023/07/19 01:30:31;;;;;;;4.97;2.75;;;;;;;;;;4977753;28;20049;-89
2023/07/19 01:32:57;;;;;;;4.93;2.50;;;;;;;;;;4979018;28;20096;-89
2023/07/19 01:35:23;;;;;;;4.95;2.80;;;;;;;;;;4993779;28;20042;-89
2023/07/19 01:37:49;;;;;;;5.00;3.35;;;;;;;;;;4961364;28;20042;-90
2023/07/19 01:40:15;;;;;;;3.92;2.10;;;;;;;;;;4994004;28;20340;-89
2023/07/19 01:42:42;;;;;;;4.68;2.72;;;;;;;;;;4993842;28;20058;-89
2023/07/19 01:45:08;;;;;;;3.33;2.58;;;;;;;;;;4994241;28;20050;-89
2023/07/19 01:47:34;;;;;;;3.42;2.45;;;;;;;;;;4977587;28;20052;-88
2023/07/19 01:50:00;;;;;;;4.38;3.25;;;;;;;;;;4961458;28;20121;-90
2023/07/19 01:52:27;;;;;;;5.20;3.22;;;;;;;;;;4961398;28;20065;-89
2023/07/19 01:54:53;;;;;;;4.93;3.05;;;;;;;;;;4995731;28;20601;-89
2023/07/19 01:57:19;;;;;;;6.93;3.78;;;;;;;;;;4990930;28;20039;-89
2023/07/19 01:59:45;;;;;;;5.40;2.65;;;;;;;;;;4994610;28;20617;-88
2023/07/19 02:02:11;;;;;;;4.15;3.30;;;;;;;;;;4993093;28;20052;-89
2023/07/19 02:04:37;;;;;;;5.20;2.95;;;;;;;;;;4992345;28;20046;-90
2023/07/19 02:07:03;;;;;;;8.15;3.65;;;;;;;;;;4964337;28;20044;-89
2023/07/19 02:09:29;;;;;;;6.70;4.63;;;;;;;;;;4980889;28;20043;-89
2023/07/19 02:11:56;;;;;;;6.60;4.40;;;;;;;;;;4957176;28;20034;-87
2023/07/19 02:14:22;;;;;;;7.60;4.57;;;;;;;;;;4981350;28;20351;-89
2023/07/19 02:16:48;;;;;;;6.60;4.45;;;;;;;;;;4966039;28;20117;-89
2023/07/19 02:19:14;;;;;;;6.63;4.95;;;;;;;;;;4999560;28;20466;-88
2023/07/19 02:21:40;;;;;;;6.30;4.53;;;;;;;;;;4976428;28;20042;-89
2023/07/19 02:24:06;;;;;;;10.25;4.70;;;;;;;;;;4972412;28;20038;-89
2023/07/19 02:26:32;;;;;;;6.05;3.70;;;;;;;;;;4996306;28;20049;-88
2023/07/19 02:28:58;;;;;;;7.18;4.97;;;;;;;;;;4976173;28;20070;-89
2023/07/19 02:31:25;;;;;;;5.90;4.32;;;;;;;;;;4992378;28;20104;-88
2023/07/19 02:33:51;;;;;;;10.20;4.28;;;;;;;;;;4961785;28;20462;-88
2023/07/19 02:36:17;;;;;;;5.50;4.13;;;;;;;;;;4968747;28;20041;-89
2023/07/19 02:38:44;;;;;;;7.20;3.92;;;;;;;;;;4982326;28;20112;-88
2023/07/19 02:41:10;;;;;;;6.15;4.07;;;;;;;;;;4961966;28;20112;-88
2023/07/19 02:43:36;;;;;;;6.75;3.90;;;;;;;;;;4947773;28;20444;-88
2023/07/19 02:46:02;;;;;;;7.70;4.03;;;;;;;;;;4975065;28;20051;-88
2023/07/19 02:48:28;;;;;;;5.10;3.78;;;;;;;;;;4960310;28;20053;-88
2023/07/19 02:50:54;;;;;;;5.97;3.75;;;;;;;;;;4986409;28;20159;-88
2023/07/19 02:53:21;;;;;;;5.97;4.32;;;;;;;;;;4960464;28;20561;-89
2023/07/19 02:55:47;;;;;;;5.95;4.65;;;;;;;;;;4985838;28;20042;-88
2023/07/19 02:58:13;;;;;;;5.95;4.32;;;;;;;;;;4976520;28;20050;-88
2023/07/19 03:00:40;;;;;;;5.18;3.53;;;;;;;;;;4990238;28;20419;-87
2023/07/19 03:03:07;;;;;;;7.35;4.28;;;;;;;;;;4993145;28;20050;-88
2023/07/19 03:05:34;;;;;;;7.43;4.70;;;;;;;;;;4991818;28;20042;-79
2023/07/19 03:08:04;;;;;;;6.50;3.72;;;;;;;;;;4988668;28;20051;-79
2023/07/19 03:10:30;;;;;;;5.78;3.80;;;;;;;;;;4957658;28;20042;-79
2023/07/19 03:12:56;;;;;;;4.95;3.67;;;;;;;;;;4941593;28;20038;-79
2023/07/19 03:15:22;;;;;;;5.65;4.38;;;;;;;;;;4943998;28;20137;-80
2023/07/19 03:17:48;;;;;;;5.82;4.35;;;;;;;;;;4937897;28;20094;-79
2023/07/19 03:20:14;;;;;;;6.82;4.32;;;;;;;;;;4969558;28;20379;-80
2023/07/19 03:22:40;;;;;;;5.93;4.25;;;;;;;;;;4953034;28;20038;-80
2023/07/19 03:25:07;;;;;;;9.48;4.30;;;;;;;;;;4965234;28;20034;-80
2023/07/19 03:27:33;;;;;;;7.03;4.60;;;;;;;;;;4956239;28;20042;-80
2023/07/19 03:29:59;;;;;;;5.57;4.78;;;;;;;;;;4950526;28;20435;-80
2023/07/19 03:32:28;;;;;;;4.85;4.22;;;;;;;;;;4970109;28;20039;-80
2023/07/19 03:34:54;;;;;;;5.82;4.35;;;;;;;;;;4962448;28;20566;-80
2023/07/19 03:37:20;;;;;;;7.20;5.18;;;;;;;;;;4956843;28;20177;-80
2023/07/19 03:39:46;;;;;;;6.47;3.95;;;;;;;;;;4987778;28;20042;-80
2023/07/19 03:42:12;;;;;;;6.55;3.80;;;;;;;;;;4956306;28;20124;-80
2023/07/19 03:44:38;;;;;;;6.22;4.05;;;;;;;;;;4973859;28;20054;-80
2023/07/19 03:47:04;;;;;;;5.65;3.90;;;;;;;;;;4959161;28;20455;-80
2023/07/19 03:49:31;;;;;;;4.95;4.10;;;;;;;;;;4978748;28;20387;-80
2023/07/19 03:51:57;;;;;;;5.47;3.47;;;;;;;;;;4959781;28;20522;-80
2023/07/19 03:54:23;;;;;;;4.65;4.07;;;;;;;;;;4958487;28;20378;-80
2023/07/19 03:56:49;;;;;;;5.32;3.92;;;;;;;;;;4974578;28;20125;-80
2023/07/19 03:59:16;;;;;;;5.85;3.70;;;;;;;;;;4949874;28;20057;-80
2023/07/19 04:01:42;;;;;;;6.18;3.38;;;;;;;;;;4973441;28;20105;-80
2023/07/19 04:04:08;;;;;;;4.43;3.30;;;;;;;;;;4960380;28;20074;-80
2023/07/19 04:06:34;;;;;;;4.70;2.70;;;;;;;;;;4970780;28;20494;-80
2023/07/19 04:09:00;;;;;;;7.68;3.70;;;;;;;;;;4962362;28;20034;-80
2023/07/19 04:11:26;;;;;;;3.72;2.78;;;;;;;;;;4944707;28;20042;-80
2023/07/19 04:13:52;;;;;;;6.32;3.72;;;;;;;;;;4945723;28;20085;-80
2023/07/19 04:16:19;;;;;;;5.13;3.35;;;;;;;;;;4959552;28;20935;-81
2023/07/19 04:18:45;;;;;;;4.43;3.22;;;;;;;;;;4957970;28;20057;-80
2023/07/19 04:21:11;;;;;;;4.72;3.15;;;;;;;;;;4945836;28;20042;-80
2023/07/19 04:23:37;;;;;;;3.33;2.70;;;;;;;;;;4975095;28;20085;-81
2023/07/19 04:26:05;;;;;;;4.47;2.60;;;;;;;;;;4962377;28;20044;-81
2023/07/19 04:28:31;;;;;;;5.50;3.15;;;;;;;;;;4960288;28;20126;-81
2023/07/19 04:30:57;;;;;;;6.40;3.03;;;;;;;;;;4942530;28;20066;-81
2023/07/19 04:33:23;;;;;;;7.53;3.25;;;;;;;;;;4991601;28;20039;-80
2023/07/19 04:35:50;;;;;;;4.72;3.10;;;;;;;;;;4958077;28;20043;-81
2023/07/19 04:38:16;;;;;;;8.82;3.53;;;;;;;;;;4951186;28;20849;-81
2023/07/19 04:40:43;;;;;;;3.55;2.75;;;;;;;;;;4962904;28;20046;-80
2023/07/19 04:43:09;;;;;;;3.78;2.80;;;;;;;;;;4952692;28;20139;-81
2023/07/19 04:45:35;;;;;;;4.85;2.70;;;;;;;;;;4972220;28;20137;-80
2023/07/19 04:48:03;;;;;;;7.30;3.40;;;;;;;;;;4943354;28;20042;-80
2023/07/19 04:50:31;;;;;;;5.05;2.50;;;;;;;;;;4972310;28;20042;-81
2023/07/19 04:52:57;;;;;;;7.05;3.00;;;;;;;;;;4971410;28;20038;-79
2023/07/19 04:55:23;;;;;;;4.55;2.97;;;;;;;;;;4968637;28;21553;-80
2023/07/19 04:57:49;;;;;;;4.50;2.60;;;;;;;;;;4939924;28;20445;-80
2023/07/19 05:00:15;;;;;;;5.15;2.88;;;;;;;;;;4968359;28;20092;-80
2023/07/19 05:02:42;;;;;;;4.15;2.53;;;;;;;;;;4977910;28;20053;-81
2023/07/19 05:05:09;;;;;;;6.80;2.88;;;;;;;;;;4946139;28;20046;-80
2023/07/19 05:07:35;;;;;;;5.03;2.90;;;;;;;;;;4968111;28;20175;-80
2023/07/19 05:10:02;;;;;;;7.97;2.83;;;;;;;;;;4982423;28;20038;-90
2023/07/19 05:12:29;;;;;;;5.28;2.90;;;;;;;;;;4981797;28;20077;-90
2023/07/19 05:14:56;;;;;;;7.03;2.97;;;;;;;;;;4949266;28;20038;-81
2023/07/19 05:17:22;;;;;;;4.10;2.25;;;;;;;;;;4941932;28;20149;-81
2023/07/19 05:19:48;;;;;;;5.57;3.05;;;;;;;;;;4953354;28;20042;-80
2023/07/19 05:22:14;;;;;;;5.70;2.55;;;;;;;;;;4963602;28;20050;-81
2023/07/19 05:24:40;;;;;;;4.47;2.47;;;;;;;;;;4966447;28;20129;-81
2023/07/19 05:27:07;;;;;;;4.38;2.90;;;;;;;;;;4974686;28;20267;-81
2023/07/19 05:29:33;;;;;;;3.42;2.55;;;;;;;;;;4954504;28;20062;-81
2023/07/19 05:32:00;;;;;;;4.25;2.55;;;;;;;;;;4978851;28;20046;-82
2023/07/19 05:34:26;;;;;;;7.30;2.60;;;;;;;;;;4942435;28;20046;-82
2023/07/19 05:36:52;;;;;;;3.90;2.50;;;;;;;;;;4989463;28;20416;-82
2023/07/19 05:39:18;;;;;;;8.13;3.22;;;;;;;;;;4953274;28;20560;-81
2023/07/19 05:41:44;;;;;;;4.30;1.98;;;;;;;;;;4989346;28;20106;-82
2023/07/19 05:44:10;;;;;;;3.65;2.00;;;;;;;;;;4988360;28;20062;-81
2023/07/19 05:46:37;;;;;;;7.10;3.10;;;;;;;;;;4986160;28;20062;-82
2023/07/19 05:49:03;;;;;;;5.38;2.33;;;;;;;;;;4974775;28;20042;-82
2023/07/19 05:51:29;;;;;;;3.70;2.38;;;;;;;;;;4973905;28;20430;-82
2023/07/19 05:53:56;;;;;;;5.10;2.17;;;;;;;;;;4959641;28;20118;-89
2023/07/19 05:56:22;;;;;;;3.80;1.90;;;;;;;;;;4976088;28;20031;-84
2023/07/19 05:58:49;;;;;;;5.72;2.70;;;;;;;;;;4991837;28;20138;-85
2023/07/19 06:01:17;;;;;;;4.07;1.70;;;;;;;;;;4955863;28;20455;-81
2023/07/19 06:03:44;;;;;;;3.30;1.70;;;;;;;;;;4991088;28;20043;-82
2023/07/19 06:06:12;;;;;;;5.13;2.75;;;;;;;;;;4992726;28;20179;-82
2023/07/19 06:08:38;;;;;;;8.13;1.90;;;;;;;;;;4974317;28;20218;-82
2023/07/19 06:11:04;;;;;;;5.43;2.55;;;;;;;;;;4956600;28;20439;-81
2023/07/19 06:13:30;;;;;;;7.15;2.83;;;;;;;;;;4973810;28;20057;-81
2023/07/19 06:15:56;;;;;;;4.57;2.28;;;;;;;;;;4977214;28;20108;-82
2023/07/19 06:18:23;;;;;;;6.20;1.90;;;;;;;;;;4952613;28;20121;-81
2023/07/19 06:20:49;;;;;;;5.72;2.28;;;;;;;;;;4973586;28;20045;-81
2023/07/19 06:23:15;;;;;;;6.18;2.47;;;;;;;;;;4989193;28;20085;-82
2023/07/19 06:25:42;;;;;;;4.80;1.90;;;;;;;;;;4988610;28;20564;-81
2023/07/19 06:28:08;;;;;;;4.22;1.90;;;;;;;;;;4958233;28;20489;-82
2023/07/19 06:30:34;;;;;;;4.00;1.63;;;;;;;;;;4952682;28;20041;-82
2023/07/19 06:33:00;;;;;;;2.63;1.90;;;;;;;;;;4972225;28;20386;-82
2023/07/19 06:35:26;;;;;;;3.40;1.80;;;;;;;;;;4957322;28;20038;-81
2023/07/19 06:37:52;;;;;;;7.50;1.98;;;;;;;;;;4955868;28;20088;-82
2023/07/19 06:40:18;;;;;;;2.83;1.75;;;;;;;;;;4957749;28;20380;-82
2023/07/19 06:42:44;;;;;;;2.67;1.42;;;;;;;;;;4955232;28;20065;-79
2023/07/19 06:45:11;;;;;;;2.38;1.63;;;;;;;;;;4973230;28;20057;-79
2023/07/19 06:47:37;;;;;;;4.10;1.90;;;;;;;;;;4971243;28;20093;-79
2023/07/19 06:50:04;;;;;;;3.25;1.60;;;;;;;;;;4957295;28;20458;-80
2023/07/19 06:52:30;;;;;;;4.13;1.50;;;;;;;;;;4948298;28;20078;-81
2023/07/19 06:54:56;;;;;;;3.17;1.75;;;;;;;;;;4966754;28;20034;-81
2023/07/19 06:57:22;;;;;;;3.03;1.95;;;;;;;;;;4971159;28;20136;-80
2023/07/19 06:59:51;;;;;;;3.35;1.70;;;;;;;;;;4972861;28;20490;-80
2023/07/19 07:02:18;;;;;;;4.35;1.65;;;;;;;;;;4953900;28;20039;-88
2023/07/19 07:04:45;;;;;;;1.75;1.10;;;;;;;;;;4981143;28;20045;-88
2023/07/19 07:07:11;;;;;;;1.67;1.10;;;;;;;;;;4993724;28;20054;-90
2023/07/19 07:09:37;;;;;;;3.38;1.73;;;;;;;;;;4943792;28;20501;-88
2023/07/19 07:12:04;;;;;;;3.60;1.50;;;;;;;;;;4959732;28;20053;-88
2023/07/19 07:14:30;;;;;;;4.40;1.50;;;;;;;;;;4975564;28;20081;-88
2023/07/19 07:16:57;;;;;;;2.78;1.92;;;;;;;;;;4940803;28;20041;-88
2023/07/19 07:19:23;;;;;;;6.57;1.55;;;;;;;;;;4980724;28;20044;-88
2023/07/19 07:21:49;;;;;;;1.48;1.30;;;;;;;;;;4992065;28;20649;-88
2023/07/19 07:24:18;;;;;;;2.55;1.65;;;;;;;;;;4991951;28;20105;-88
2023/07/19 07:26:44;;;;;;;4.25;1.58;;;;;;;;;;4950677;28;20069;-88
2023/07/19 07:29:10;;;;;;;3.25;1.55;;;;;;;;;;4942511;28;20045;-81
2023/07/19 07:31:36;;;;;;;3.22;1.92;;;;;;;;;;4977851;28;20039;-81
2023/07/19 07:34:02;;;;;;;2.22;1.15;;;;;;;;;;4993006;28;20070;-80
2023/07/19 07:36:29;;;;;;;4.88;1.67;;;;;;;;;;4973665;28;20180;-80
2023/07/19 07:38:55;;;;;;;2.33;1.42;;;;;;;;;;4964630;28;20042;-81
2023/07/19 07:41:21;;;;;;;2.15;1.25;;;;;;;;;;4941615;28;20053;-81
2023/07/19 07:43:47;;;;;;;4.43;1.50;;;;;;;;;;4957340;28;20072;-81
2023/07/19 07:46:14;;;;;;;3.67;1.30;;;;;;;;;;4969950;28;20100;-81
2023/07/19 07:48:40;;;;;;;2.35;1.30;;;;;;;;;;4970798;28;20038;-81
2023/07/19 07:51:06;;;;;;;4.97;1.70;;;;;;;;;;4972648;28;20109;-82
2023/07/19 07:53:32;;;;;;;2.60;1.20;;;;;;;;;;4970349;28;20043;-81
2023/07/19 07:55:58;;;;;;;2.83;1.30;;;;;;;;;;4956832;28;20081;-82
2023/07/19 07:58:25;;;;;;;3.05;1.30;;;;;;;;;;4972166;28;20522;-82
2023/07/19 08:00:53;;;;;;;3.95;1.77;;;;;;;;;;4959680;28;20237;-81
2023/07/19 08:03:20;;;;;;;2.95;1.25;;;;;;;;;;4958413;28;20088;-81
2023/07/19 08:05:46;;;;;;;1.67;0.98;;;;;;;;;;4955244;28;20660;-80
2023/07/19 08:08:12;;;;;;;3.35;2.25;;;;;;;;;;4973420;28;20512;-88
2023/07/19 08:10:41;;;;;;;4.75;1.60;;;;;;;;;;4975679;28;20092;-89
2023/07/19 08:13:08;;;;;;;1.95;1.02;;;;;;;;;;4977286;28;20084;-89
2023/07/19 08:15:34;;;;;;;4.00;1.80;;;;;;;;;;4962936;28;20030;-89
2023/07/19 08:18:00;;;;;;;3.97;1.67;;;;;;;;;;4974884;28;20378;-90
2023/07/19 08:20:26;;;;;;;3.20;1.67;;;;;;;;;;4974502;28;20364;-89
2023/07/19 08:22:52;;;;;;;4.15;1.67;;;;;;;;;;4988520;28;20438;-91
2023/07/19 08:25:20;;;;;;;2.10;1.30;;;;;;;;;;4972692;28;20543;-91
2023/07/19 08:27:46;;;;;;;2.58;1.65;;;;;;;;;;4973852;28;20046;-88
2023/07/19 08:30:15;;;;;;;3.70;1.50;;;;;;;;;;4974135;28;20034;-89
2023/07/19 08:32:45;;;;;;;8.30;1.73;;;;;;;;;;4993992;28;20057;-88
2023/07/19 08:35:12;;;;;;;4.38;1.65;;;;;;;;;;4995384;28;20405;-89
2023/07/19 08:37:38;;;;;;;2.33;1.45;;;;;;;;;;4944040;28;20034;-87
2023/07/19 08:40:05;;;;;;;9.98;1.45;;;;;;;;;;4961869;28;20096;-87
2023/07/19 08:42:31;;;;;;;2.42;1.27;;;21.40;89.70;;;;;;4970220;28;20077;-84
2023/07/19 08:44:58;;;;;;;1.77;1.00;;;20.30;95.90;;;;;;4993058;28;20046;-88
2023/07/19 08:47:24;;;;;;;2.20;1.48;;;20.30;95.80;;;;;;4956081;28;21386;-87
2023/07/19 08:49:51;;;;;;;2.60;1.63;;;20.30;95.70;;;;;;4965800;28;20431;-88
2023/07/19 08:52:17;;;;;;;3.22;1.90;;;20.30;95.60;;;;;;4985475;28;20038;-88
2023/07/19 08:54:43;;;;;;;3.65;1.50;;;20.30;95.50;;;;;;4994100;28;20049;-88
2023/07/19 08:57:09;;;;;;;3.25;1.05;;;20.40;95.50;;;;;;4982849;28;20042;-88
2023/07/19 08:59:35;;;;;;;2.42;1.33;;;20.40;95.50;;;;;;4956678;28;20050;-80
2023/07/19 09:02:02;;;;;;;4.43;1.55;;;20.50;95.50;;;;;;4971625;28;20104;-80
2023/07/19 09:04:28;;;;;;;2.15;1.02;;;;;;;;;;4971037;28;20049;-80
2023/07/19 09:06:54;;;;;;;1.80;1.20;;;;;;;;;;4953195;28;20047;-80
2023/07/19 09:09:20;;;;;;;2.47;1.50;;;;;;;;;;4955567;28;20046;-80
2023/07/19 09:11:49;;;;;;;3.17;1.75;;;;;;;;;;4986514;28;20054;-81
2023/07/19 09:14:15;;;;;;;4.00;1.65;;;;;;;;;;4974313;28;20046;-80
2023/07/19 09:16:41;;;;;;;2.08;0.95;;;;;;;;;;4952936;28;20034;-80
2023/07/19 09:19:10;;;;;;;2.25;1.42;;;;;;;;;;4973527;28;20378;-80
2023/07/19 09:21:40;;;;;;;2.10;1.30;;;;;;;;;;4953082;28;20117;-88
2023/07/19 09:24:08;;;;;;;2.78;1.58;;;;;;;;;;4990279;28;20158;-88
2023/07/19 09:26:52;;;;;;;2.80;1.55;;;;;;;;;;4981386;28;20057;-88
2023/07/19 09:29:19;;;;;;;4.65;1.88;;;;;;;;;;4972326;28;20054;-80
2023/07/19 09:31:55;;;;;;;3.08;1.45;;;;;;;;;;4974175;28;20740;-80
2023/07/19 09:34:26;;;;;;;2.15;1.33;;;;;;;;;;4964015;28;20050;-80
2023/07/19 09:36:53;;;;;;;3.23;1.67;;;;;;;;;;4989930;28;20037;-80
2023/07/19 09:39:19;;;;;;;3.28;1.42;;;;;;;;;;4934672;28;20042;-88
2023/07/19 09:41:45;;;;;;;2.88;1.40;;;;;;;;;;4992838;28;20046;-87
2023/07/19 09:44:14;;;;;;;3.50;1.60;;;;;;;;;;4986320;28;20060;-87
2023/07/19 09:46:40;;;;;;;2.13;1.42;;;;;;;;;;4971326;28;20049;-87
2023/07/19 09:49:06;;;;;;;2.83;1.52;;;;;;;;;;4982743;28;20282;-88
2023/07/19 09:51:35;;;;;;;4.88;2.00;;;;;;;;;;4967830;28;20101;-88
2023/07/19 09:54:01;;;;;;;6.13;2.28;;;;;;;;;;4976839;28;20085;-87
2023/07/19 09:56:28;;;;;;;2.67;1.45;;;;;;;;;;4976834;28;20089;-88
2023/07/19 09:58:55;;;;;;;3.95;2.40;;;;;;;;;;4974254;28;20042;-89
2023/07/19 10:01:22;;;;;;;5.07;1.70;;;;;;;;;;4961038;28;20379;-88
2023/07/19 10:03:48;;;;;;;4.05;1.27;;;;;;;;;;4983312;28;20145;-88
2023/07/19 10:06:15;;;;;;;3.70;1.60;;;;;;;;;;4933187;28;20516;-88
2023/07/19 10:08:41;;;;;;;4.13;1.58;;;;;;;;;;4951054;28;20047;-87
2023/07/19 10:11:07;;;;;;;2.97;1.50;;;;;;;;;;4971175;28;20070;-87
2023/07/19 10:13:53;;;;;;;3.42;1.80;;;;;;;;;;4970002;28;20068;-87
2023/07/19 10:16:24;;;;;;;2.75;1.60;;;;;;;;;;4986020;28;20471;-87
2023/07/19 10:19:12;;;;;;;2.72;1.60;;;;;;;;;;4989273;28;20042;-87
2023/07/19 10:21:38;;;;;;;3.28;1.50;;;;;;;;;;4990177;28;20124;-87
2023/07/19 10:24:07;;;;;;;1.65;1.27;;;;;;;;;;4958636;28;20530;-80
2023/07/19 10:26:37;;;;;;;3.97;1.48;;;;;;;;;;4967871;28;20042;-80
2023/07/19 10:29:04;;;;;;;4.05;1.33;;;;;;;;;;4983159;28;20038;-80
2023/07/19 10:31:39;;;;;;;2.67;1.20;;;;;;;;;;4972959;28;20113;-81
2023/07/19 10:34:05;;;;;;;1.80;1.08;;;;;;;;;;5006063;28;20501;-81
2023/07/19 10:36:31;;;;;;;3.72;1.05;;;;;;;;;;4958124;28;20035;-80
2023/07/19 10:38:58;;;;;;;4.25;1.60;;;;;;;;;;4958370;28;20042;-81
2023/07/19 10:41:24;;;;;;;3.38;1.42;;;;;;;;;;4943874;28;20050;-81
2023/07/19 10:43:50;;;;;;;4.43;1.60;;;;;;;;;;4957212;28;20066;-81
2023/07/19 10:46:17;;;;;;;5.30;1.85;;;;;;;;;;4973167;28;20529;-81
2023/07/19 10:48:44;;;;;;;2.55;1.20;;;;;;;;;;4972370;28;20101;-87
2023/07/19 10:51:10;;;;;;;1.75;1.45;;;;;;;;;;4973918;28;20077;-87
2023/07/19 10:53:44;;;;;;;3.45;1.35;;;;;;;;;;4989814;28;20113;-87
2023/07/19 10:56:11;;;;;;;3.13;1.20;;;;;;;;;;4975315;28;20486;-87
2023/07/19 10:58:37;;;;;;;2.97;1.42;;;;;;;;;;4958571;28;20038;-87
2023/07/19 11:01:04;;;;;;;4.07;1.27;;;;;;;;;;4964845;28;20038;-87
2023/07/19 11:03:30;;;;;;;2.92;1.35;;;;;;;;;;4973229;28;20690;-88
2023/07/19 11:05:58;;;;;;;3.20;1.30;;;;;;;;;;4987969;28;20400;-87
2023/07/19 11:08:25;;;;;;;3.53;1.30;;;;;;;;;;4969255;28;20145;-87
2023/07/19 11:10:52;;;;;;;2.88;1.30;;;;;;;;;;4991173;28;20034;-88
2023/07/19 11:13:23;;;;;;;3.25;1.25;;;20.50;95.50;;;;;;4977627;28;20125;-88
2023/07/19 11:15:51;;;;;;;3.05;1.50;;;23.10;92.20;;;;;;4995480;28;20641;-88
2023/07/19 11:18:23;;;;;;;2.72;1.40;;;;;;;;;;4976689;28;20065;-80
2023/07/19 11:20:50;;;;;;;1.67;1.15;;;;;;;;;;4978790;28;20101;-81
2023/07/19 11:23:16;;;;;;;1.80;1.10;;;;;;;;;;4963075;28;20540;-81
2023/07/19 11:25:42;;;;;;;2.33;1.42;;;;;;;;;;4955026;28;20046;-81
2023/07/19 11:28:08;;;;;;;2.35;1.50;;;23.20;92.20;;;;;;4952809;28;20085;-81
2023/07/19 11:30:40;;;;;;;4.03;1.30;;;23.60;91.90;;;;;;4976662;28;20062;-80
2023/07/19 11:33:09;;;;;;;2.40;1.35;;;23.70;91.60;;;;;;4987315;28;20465;-79
2023/07/19 11:35:36;;;;;;;3.53;1.13;;;23.70;91.90;;;;;;4987718;28;20487;-80
2023/07/19 11:38:02;;;;;;;2.33;1.10;;;23.80;91.40;;;;;;4988250;28;20042;-80
2023/07/19 11:40:27;;;;;;;3.38;1.20;;;23.80;91.30;;;;;;4971880;28;20046;-79
2023/07/19 11:42:56;;;;;;;3.13;1.30;;;23.80;91.20;;;;;;4972719;28;20055;-83
2023/07/19 11:45:24;;;;;;;2.38;1.33;;;23.80;91.10;;;;;;4956677;28;20046;-83
2023/07/19 11:47:54;;;;;;;3.70;1.80;;;23.80;90.90;;;;;;4961213;28;21329;-84
2023/07/19 11:50:23;;;;;;;3.67;1.20;;;23.80;90.60;;;;;;4968506;28;20054;-83
2023/07/19 11:53:01;;;;;;;2.97;1.27;;;23.80;90.40;;;;;;4957305;28;20050;-83
2023/07/19 11:55:29;;;;;;;2.40;1.20;;;23.70;90.20;;;;;;4955925;28;20461;-81
2023/07/19 11:58:02;;;;;;;3.72;1.60;;;23.80;90.30;;;;;;4981832;28;20051;-81
2023/07/19 12:00:28;;;;;;;3.08;1.67;;;23.80;90.30;;;;;;4986062;28;20030;-81
2023/07/19 12:02:54;;;;;;;2.67;1.38;;;23.80;90.30;;;;;;4953294;28;20035;-81
2023/07/19 12:05:22;;;;;;;2.25;1.20;;;23.80;90.20;;;;;;4985775;28;20034;-81
2023/07/19 12:07:51;;;;;;;2.78;0.88;;;23.90;90.20;;;;;;4958761;28;20394;-81
2023/07/19 12:10:22;;;;;;;3.55;1.55;;;23.90;90.00;;;;;;4972979;28;20046;-80
2023/07/19 12:12:48;;;;;;;2.53;1.30;;;23.90;90.00;;;;;;4974071;28;20117;-81
2023/07/19 12:15:15;;;;;;;1.25;0.93;;;24.00;90.00;;;;;;4935485;28;20039;-81
2023/07/19 12:17:41;;;;;;;1.67;1.23;;;24.00;89.70;;;;;;4936978;28;20049;-80
2023/07/19 12:20:08;;;;;;;4.93;1.45;;;24.10;89.60;;;;;;4989244;28;20050;-81
2023/07/19 12:22:39;;;;;;;4.50;1.33;;;24.20;89.50;;;;;;4972596;28;20030;-81
2023/07/19 12:25:05;;;;;;;2.03;1.27;;;24.30;89.30;;;;;;4974810;28;20477;-80
2023/07/19 12:27:32;;;;;;;1.80;1.00;;;24.40;89.40;;;;;;4974764;28;20038;-81
2023/07/19 12:29:58;;;;;;;2.58;1.55;;;24.40;89.20;;;;;;4991802;28;20081;-81
2023/07/19 12:32:24;;;;;;;2.55;1.30;;;24.40;88.90;;;;;;4992295;28;20096;-81
2023/07/19 12:34:50;;;;;;;1.80;1.08;;;24.40;88.70;;;;;;4976435;28;20446;-81
2023/07/19 12:37:16;;;;;;;1.85;1.40;;;24.50;88.20;;;;;;4992533;28;20058;-81
2023/07/19 12:39:42;;;;;;;2.28;1.23;;;24.60;87.80;;;;;;4979847;28;20072;-81
2023/07/19 12:42:09;;;;;;;4.28;1.42;;;24.70;87.60;;;;;;4992527;28;20045;-81
2023/07/19 12:44:36;;;;;;;2.13;1.00;;;24.70;87.40;;;;;;4975463;28;20128;-81
2023/07/19 12:47:06;;;;;;;1.85;0.80;;;24.80;87.50;;;;;;4960791;28;20113;-82
2023/07/19 12:49:32;;;;;;;2.25;1.00;;;24.90;87.00;;;;;;4992339;28;20042;-81
2023/07/19 12:51:59;;;;;;;2.50;1.27;;;24.90;87.00;;;;;;4992415;28;20085;-81
2023/07/19 12:54:25;;;;;;;1.75;1.08;;;24.90;86.60;;;;;;4993095;28;20577;-82
2023/07/19 12:56:52;;;;;;;5.25;1.15;;;24.90;86.60;;;;;;4975400;28;20360;-82
2023/07/19 12:59:17;;;;;;;2.65;1.05;;;24.90;86.40;;;;;;4975534;28;20494;-81
2023/07/19 13:01:43;;;;;;;2.28;1.05;;;25.00;86.40;;;;;;4991541;28;20121;-82
2023/07/19 13:04:10;;;;;;;2.30;1.10;;;25.00;86.40;;;;;;5007973;28;20038;-81
2023/07/19 13:06:36;;;;;;;3.53;0.90;;;25.00;86.00;;;;;;4976316;28;20098;-81
2023/07/19 13:09:06;;;;;;;3.92;1.00;;;25.10;85.50;;;;;;4992190;28;20038;-82
2023/07/19 13:11:32;;;;;;;1.90;0.85;;;25.10;85.10;;;;;;4983693;28;20196;-82
2023/07/19 13:13:58;;;;;;;2.67;1.08;;;25.00;84.90;;;;;;4979219;28;20042;-81
2023/07/19 13:16:25;;;;;;;1.30;0.75;;;25.00;84.90;;;;;;4974116;28;20053;-81
2023/07/19 13:18:50;;;;;;;1.95;1.00;;;25.10;84.90;;;;;;4957548;28;20161;-81
2023/07/19 13:21:16;;;;;;;1.83;0.80;;;25.10;84.30;;;;;;5016001;28;20061;-81
2023/07/19 13:23:43;;;;;;;2.80;1.17;;;25.00;84.00;;;;;;4991447;28;20328;-81
2023/07/19 13:26:09;;;;;;;4.30;1.17;;;25.00;83.70;;;;;;4988026;28;20061;-81
2023/07/19 13:28:35;;;;;;;1.42;0.90;;;25.00;83.70;;;;;;4994921;28;20132;-81
2023/07/19 13:31:01;;;;;;;3.33;1.00;;;25.10;83.70;;;;;;5006614;28;20086;-81
2023/07/19 13:33:27;;;;;;;1.13;0.77;;;25.00;83.70;;;;;;4990205;28;20046;-81
2023/07/19 13:35:53;;;;;;;1.10;0.85;;;25.10;84.10;;;;;;4990551;28;20481;-81
2023/07/19 13:38:19;;;;;;;1.73;1.13;;;25.10;84.10;;;;;;4959891;28;20122;-81
2023/07/19 13:40:45;;;;;;;1.92;0.95;;;25.20;84.10;;;;;;4971022;28;20056;-81
2023/07/19 13:43:12;;;;;;;1.73;0.90;;;25.20;83.70;;;;;;4973740;28;20499;-81
2023/07/19 13:45:41;;;;;;;1.80;0.82;;;25.20;83.50;;;;;;4990662;28;20058;-81
2023/07/19 13:48:08;;;;;;;1.30;0.70;;;25.30;83.30;;;;;;4975079;28;20062;-81
2023/07/19 13:50:34;;;;;;;0.98;0.63;;;25.30;83.00;;;;;;4973163;28;20056;-81
2023/07/19 13:53:00;;;;;;;1.80;0.90;;;25.30;83.20;;;;;;4974475;28;20039;-80
2023/07/19 13:55:26;;;;;;;2.30;1.20;;;25.40;83.60;;;;;;4958290;28;20050;-81
2023/07/19 13:57:52;;;;;;;2.00;1.00;;;25.40;83.70;;;;;;4990628;28;20118;-81
2023/07/19 14:00:18;;;;;;;1.80;0.90;;;25.50;83.60;;;;;;4957459;28;21148;-80
2023/07/19 14:02:45;;;;;;;2.00;1.00;;;25.60;83.80;;;;;;4955049;28;20054;-81
2023/07/19 14:05:12;;;;;;;1.50;0.77;;;25.70;83.60;;;;;;4988872;28;20042;-81
2023/07/19 14:07:38;;;;;;;2.22;1.05;;;25.70;83.80;;;;;;4990125;28;20050;-81
2023/07/19 14:10:04;;;;;;;1.00;0.70;;;25.80;83.00;;;;;;5006363;28;20046;-81